createdAt,value
2023-03-30T00:01:12.077Z,99.90
2023-03-30T00:03:39.798Z,99.90
2023-03-30T00:06:07.512Z,99.90
2023-03-30T00:08:34.971Z,99.90
2023-03-30T00:11:06.933Z,99.90
2023-03-30T00:13:36.338Z,99.90
2023-03-30T00:16:05.075Z,99.90
2023-03-30T00:18:34.248Z,99.90
2023-03-30T00:21:04.461Z,99.90
2023-03-30T00:23:32.636Z,99.90
2023-03-30T00:26:00.688Z,99.90
2023-03-30T00:28:30.682Z,99.90
2023-03-30T00:30:58.988Z,99.90
2023-03-30T00:33:41.222Z,99.90
2023-03-30T00:36:09.871Z,99.90
2023-03-30T00:38:37.145Z,99.90
2023-03-30T00:41:04.770Z,99.90
2023-03-30T00:43:33.597Z,99.90
2023-03-30T00:46:01.545Z,99.90
2023-03-30T00:48:34.564Z,99.90
2023-03-30T00:51:07.604Z,99.90
2023-03-30T00:53:40.408Z,99.90
2023-03-30T00:56:10.954Z,99.90
2023-03-30T00:58:41.185Z,99.90
2023-03-30T01:01:11.195Z,99.90
2023-03-30T01:03:45.794Z,99.90
2023-03-30T01:06:17.978Z,99.90
2023-03-30T01:08:45.822Z,99.90
2023-03-30T01:11:13.056Z,99.90
2023-03-30T01:13:47.946Z,99.90
2023-03-30T01:16:40.974Z,99.90
2023-03-30T01:19:23.374Z,99.90
2023-03-30T01:22:15.418Z,99.90
2023-03-30T01:25:06.987Z,99.90
2023-03-30T01:27:57.267Z,99.90
2023-03-30T01:30:37.450Z,99.90
2023-03-30T01:33:13.564Z,99.90
2023-03-30T01:35:59.029Z,99.90
2023-03-30T01:38:41.539Z,99.90
2023-03-30T01:41:33.395Z,99.90
2023-03-30T01:44:37.490Z,99.90
2023-03-30T01:47:16.790Z,99.90
2023-03-30T01:50:05.014Z,99.90
2023-03-30T01:52:41.312Z,99.90
2023-03-30T01:55:20.203Z,99.90
2023-03-30T01:58:06.092Z,99.90
2023-03-30T02:00:36.357Z,99.90
2023-03-30T02:03:09.639Z,99.90
2023-03-30T02:05:37.974Z,99.90
2023-03-30T02:08:09.777Z,99.90
2023-03-30T02:10:39.547Z,99.90
2023-03-30T02:13:08.709Z,99.90
2023-03-30T02:15:41.606Z,99.90
2023-03-30T02:18:10.122Z,99.90
2023-03-30T02:20:39.092Z,99.90
2023-03-30T02:23:07.297Z,99.90
2023-03-30T02:25:40.458Z,99.90
2023-03-30T02:28:09.022Z,99.90
2023-03-30T02:30:41.069Z,99.90
2023-03-30T02:33:19.777Z,99.90
2023-03-30T02:36:23.890Z,99.90
2023-03-30T02:38:51.650Z,99.90
2023-03-30T02:41:40.663Z,99.90
2023-03-30T02:44:34.255Z,99.90
2023-03-30T02:47:41.294Z,99.90
2023-03-30T02:50:34.637Z,99.90
2023-03-30T02:53:25.142Z,99.90
2023-03-30T02:56:16.610Z,99.90
2023-03-30T02:59:04.021Z,99.90
2023-03-30T03:01:34.220Z,99.90
2023-03-30T03:04:10.101Z,99.90
2023-03-30T03:06:46.504Z,99.90
2023-03-30T03:09:15.322Z,99.90
2023-03-30T03:11:42.610Z,99.90
2023-03-30T03:14:11.905Z,99.90
2023-03-30T03:16:39.484Z,99.90
2023-03-30T03:19:14.725Z,99.90
2023-03-30T03:21:42.542Z,99.90
2023-03-30T03:24:13.346Z,99.90
2023-03-30T03:26:59.062Z,99.90
2023-03-30T03:29:29.039Z,99.90
2023-03-30T03:31:56.841Z,99.90
2023-03-30T03:34:31.364Z,99.90
2023-03-30T03:37:02.354Z,99.90
2023-03-30T03:39:32.220Z,99.90
2023-03-30T03:42:09.653Z,99.90
2023-03-30T03:44:45.297Z,99.90
2023-03-30T03:47:16.370Z,99.90
2023-03-30T03:49:44.098Z,99.90
2023-03-30T03:52:11.751Z,99.90
2023-03-30T03:54:39.133Z,99.90
2023-03-30T03:57:07.248Z,99.90
2023-03-30T03:59:34.736Z,99.90
2023-03-30T04:02:02.106Z,99.90
2023-03-30T04:04:29.569Z,99.90
2023-03-30T04:06:57.071Z,99.90
2023-03-30T04:09:24.856Z,99.90
2023-03-30T04:12:24.809Z,99.90
2023-03-30T04:15:12.588Z,99.90
2023-03-30T04:18:00.193Z,99.90
2023-03-30T04:20:49.266Z,99.90
2023-03-30T04:23:35.904Z,99.90
2023-03-30T04:26:18.421Z,99.90
2023-03-30T04:28:48.669Z,99.90
2023-03-30T04:31:42.193Z,99.90
2023-03-30T04:34:15.940Z,99.90
2023-03-30T04:36:51.520Z,99.90
2023-03-30T04:39:30.093Z,99.90
2023-03-30T04:42:37.774Z,99.90
2023-03-30T04:45:23.615Z,99.90
2023-03-30T04:48:24.268Z,99.90
2023-03-30T04:51:11.861Z,99.90
2023-03-30T04:53:57.732Z,99.90
2023-03-30T04:56:43.483Z,99.90
2023-03-30T04:59:23.368Z,99.90
2023-03-30T05:02:12.477Z,99.90
2023-03-30T05:04:54.364Z,99.90
2023-03-30T05:07:41.569Z,99.90
2023-03-30T05:10:42.274Z,99.90
2023-03-30T05:13:36.519Z,99.90
2023-03-30T05:16:22.842Z,99.90
2023-03-30T05:19:13.173Z,99.90
2023-03-30T05:22:01.145Z,99.90
2023-03-30T05:24:46.869Z,99.90
2023-03-30T05:27:24.632Z,99.90
2023-03-30T05:29:52.118Z,99.90
2023-03-30T05:32:43.037Z,99.90
2023-03-30T05:35:25.112Z,99.90
2023-03-30T05:38:10.902Z,99.90
2023-03-30T05:40:51.344Z,99.90
2023-03-30T05:43:43.511Z,99.90
2023-03-30T05:46:18.398Z,99.90
2023-03-30T05:48:59.857Z,99.90
2023-03-30T05:51:32.689Z,99.90
2023-03-30T05:54:18.459Z,99.90
2023-03-30T05:56:58.131Z,99.90
2023-03-30T05:59:57.540Z,99.90
2023-03-30T06:02:45.124Z,99.90
2023-03-30T06:05:17.338Z,99.90
2023-03-30T06:07:45.750Z,99.90
2023-03-30T06:10:13.561Z,99.90
2023-03-30T06:12:42.941Z,99.90
2023-03-30T06:15:23.763Z,99.90
2023-03-30T06:18:04.035Z,99.90
2023-03-30T06:20:34.336Z,99.90
2023-03-30T06:23:02.211Z,99.90
2023-03-30T06:25:30.926Z,99.90
2023-03-30T06:27:58.483Z,99.90
2023-03-30T06:30:26.851Z,99.90
2023-03-30T06:32:57.628Z,99.90
2023-03-30T06:35:29.158Z,99.90
2023-03-30T06:37:57.709Z,99.90
2023-03-30T06:40:24.959Z,99.90
2023-03-30T06:42:52.899Z,99.90
2023-03-30T06:45:26.966Z,99.90
2023-03-30T06:47:55.041Z,99.90
2023-03-30T06:50:23.141Z,99.90
2023-03-30T06:53:10.603Z,99.90
2023-03-30T06:55:42.767Z,99.90
2023-03-30T06:58:14.384Z,99.90
2023-03-30T07:00:42.029Z,99.90
2023-03-30T07:03:29.893Z,99.90
2023-03-30T07:06:21.142Z,99.90
2023-03-30T07:08:49.629Z,99.90
2023-03-30T07:11:22.437Z,99.90
2023-03-30T07:13:51.464Z,99.90
2023-03-30T07:16:18.996Z,99.90
2023-03-30T07:18:47.457Z,99.90
2023-03-30T07:21:14.849Z,99.90
2023-03-30T07:23:43.481Z,99.90
2023-03-30T07:26:16.863Z,99.90
2023-03-30T07:28:52.501Z,99.90
2023-03-30T07:31:22.158Z,99.90
2023-03-30T07:33:50.276Z,99.90
2023-03-30T07:36:22.259Z,99.90
2023-03-30T07:38:49.642Z,99.90
2023-03-30T07:41:17.846Z,99.90
2023-03-30T07:43:48.446Z,99.90
2023-03-30T07:46:16.096Z,99.90
2023-03-30T07:48:47.106Z,99.90
2023-03-30T07:51:14.630Z,99.90
2023-03-30T07:53:49.780Z,99.90
2023-03-30T07:56:23.996Z,99.90
2023-03-30T07:58:54.745Z,99.90
2023-03-30T08:01:26.705Z,99.90
2023-03-30T08:04:03.306Z,99.90
2023-03-30T08:06:34.203Z,99.90
2023-03-30T08:09:02.627Z,99.90
2023-03-30T08:11:31.638Z,99.90
2023-03-30T08:13:58.828Z,99.90
2023-03-30T08:16:26.598Z,99.90
2023-03-30T08:18:54.917Z,99.90
2023-03-30T08:21:25.644Z,99.90
2023-03-30T08:23:55.049Z,99.90
2023-03-30T08:26:22.315Z,99.90
2023-03-30T08:28:49.586Z,99.90
2023-03-30T08:31:18.063Z,99.90
2023-03-30T08:33:45.494Z,99.90
2023-03-30T08:36:12.950Z,99.90
2023-03-30T08:38:41.290Z,99.90
2023-03-30T08:41:31.621Z,99.90
2023-03-30T08:44:23.154Z,99.90
2023-03-30T08:46:51.621Z,99.90
2023-03-30T08:49:20.756Z,99.90
2023-03-30T08:51:50.827Z,99.90
2023-03-30T08:54:23.055Z,99.90
2023-03-30T08:57:20.845Z,99.90
2023-03-30T09:00:06.339Z,99.90
2023-03-30T09:02:43.120Z,99.90
2023-03-30T09:05:19.032Z,99.90
2023-03-30T09:07:46.473Z,99.90
2023-03-30T09:10:16.058Z,99.90
2023-03-30T09:12:49.167Z,99.90
2023-03-30T09:15:32.099Z,99.90
2023-03-30T09:18:02.067Z,99.90
2023-03-30T09:20:32.361Z,99.90
2023-03-30T09:23:02.260Z,99.90
2023-03-30T09:25:47.325Z,99.90
2023-03-30T09:28:33.833Z,99.90
2023-03-30T09:31:21.328Z,99.90
2023-03-30T09:34:06.266Z,99.90
2023-03-30T09:36:49.572Z,99.90
2023-03-30T09:39:27.266Z,99.90
2023-03-30T09:42:06.715Z,99.90
2023-03-30T09:44:37.966Z,99.90
2023-03-30T09:47:23.028Z,99.90
2023-03-30T09:49:59.924Z,99.90
2023-03-30T09:52:30.066Z,99.90
2023-03-30T09:54:58.399Z,99.90
2023-03-30T09:57:31.561Z,99.90
2023-03-30T10:00:01.455Z,99.90
2023-03-30T10:02:39.294Z,99.90
2023-03-30T10:05:06.856Z,99.90
2023-03-30T10:07:40.410Z,99.90
2023-03-30T10:10:27.448Z,99.90
2023-03-30T10:13:03.404Z,99.90
2023-03-30T10:15:35.434Z,99.90
2023-03-30T10:18:19.568Z,99.90
2023-03-30T10:21:18.237Z,99.90
2023-03-30T10:23:58.272Z,99.90
2023-03-30T10:26:30.571Z,99.90
2023-03-30T10:29:04.529Z,99.90
2023-03-30T10:31:36.723Z,99.90
2023-03-30T10:34:12.969Z,99.90
2023-03-30T10:36:40.941Z,99.90
2023-03-30T10:39:14.534Z,99.90
2023-03-30T10:41:42.556Z,99.90
2023-03-30T10:44:23.895Z,99.90
2023-03-30T10:46:53.770Z,99.90
2023-03-30T10:49:36.375Z,99.90
2023-03-30T10:52:18.340Z,99.90
2023-03-30T10:54:56.949Z,99.90
2023-03-30T10:57:41.448Z,99.90
2023-03-30T11:00:48.602Z,99.90
2023-03-30T11:03:23.056Z,99.90
2023-03-30T11:05:54.369Z,99.90
2023-03-30T11:08:28.737Z,99.90
2023-03-30T11:10:59.031Z,99.90
2023-03-30T11:13:31.637Z,99.90
2023-03-30T11:16:04.640Z,99.90
2023-03-30T11:18:57.412Z,99.90
2023-03-30T11:21:35.904Z,99.90
2023-03-30T11:24:18.260Z,99.90
2023-03-30T11:26:51.802Z,99.90
2023-03-30T11:29:46.801Z,99.90
2023-03-30T11:32:36.284Z,99.90
2023-03-30T11:35:20.786Z,99.90
2023-03-30T11:38:14.947Z,99.90
2023-03-30T11:40:44.080Z,99.90
2023-03-30T11:43:13.283Z,99.90
2023-03-30T11:46:09.101Z,99.90
2023-03-30T11:48:57.445Z,99.90
2023-03-30T11:51:44.250Z,99.90
2023-03-30T11:54:24.396Z,99.90
2023-03-30T11:57:19.364Z,99.90
2023-03-30T11:59:57.307Z,99.90
2023-03-30T12:02:34.988Z,99.90
2023-03-30T12:05:32.221Z,99.90
2023-03-30T12:08:05.384Z,99.90
2023-03-30T12:10:42.985Z,99.90
2023-03-30T12:13:15.877Z,99.90
2023-03-30T12:15:58.199Z,99.90
2023-03-30T12:18:52.476Z,99.90
2023-03-30T12:21:33.002Z,99.90
2023-03-30T12:24:42.258Z,99.90
2023-03-30T12:27:11.900Z,99.90
2023-03-30T12:32:29.058Z,99.90
2023-03-30T12:35:00.046Z,99.90
2023-03-30T12:37:30.292Z,99.90
2023-03-30T12:40:09.542Z,99.90
2023-03-30T12:42:46.390Z,99.90
2023-03-30T12:45:25.821Z,99.90
2023-03-30T12:48:30.580Z,99.90
2023-03-30T12:51:20.235Z,99.90
2023-03-30T12:54:04.092Z,99.90
2023-03-30T12:57:07.573Z,99.90
2023-03-30T12:59:46.936Z,99.90
2023-03-30T13:02:51.736Z,99.90
2023-03-30T13:05:30.410Z,99.90
2023-03-30T13:08:03.430Z,99.90
2023-03-30T13:10:30.972Z,99.90
2023-03-30T13:13:01.747Z,99.90
2023-03-30T13:15:47.510Z,99.90
2023-03-30T13:18:14.834Z,99.90
2023-03-30T13:20:48.172Z,99.90
2023-03-30T13:23:15.506Z,99.90
2023-03-30T13:25:57.788Z,99.90
2023-03-30T13:28:34.060Z,99.90
2023-03-30T13:31:31.087Z,99.90
2023-03-30T13:34:16.358Z,99.90
2023-03-30T13:36:51.140Z,99.90
2023-03-30T13:39:32.331Z,99.90
2023-03-30T13:42:27.990Z,99.90
2023-03-30T13:45:03.964Z,99.90
2023-03-30T13:47:52.781Z,99.90
2023-03-30T13:50:27.349Z,99.90
2023-03-30T13:52:57.414Z,99.90
2023-03-30T13:55:33.306Z,99.90
2023-03-30T13:58:13.916Z,99.90
2023-03-30T14:00:50.415Z,99.90
2023-03-30T14:03:49.091Z,99.90
2023-03-30T14:06:20.985Z,99.90
2023-03-30T14:08:51.095Z,99.90
2023-03-30T14:11:22.478Z,99.90
2023-03-30T14:13:52.746Z,99.90
2023-03-30T14:16:24.387Z,99.90
2023-03-30T14:18:52.954Z,99.90
2023-03-30T14:21:24.086Z,98.20
2023-03-30T14:23:54.196Z,95.30
2023-03-30T14:26:27.647Z,94.50
2023-03-30T14:28:56.829Z,94.30
2023-03-30T14:31:27.329Z,94.20
2023-03-30T14:33:55.431Z,94.00
2023-03-30T14:36:23.145Z,92.40
2023-03-30T14:38:52.652Z,92.30
2023-03-30T14:41:29.068Z,91.80
2023-03-30T14:44:02.233Z,90.40
2023-03-30T14:46:51.648Z,89.90
2023-03-30T14:49:29.776Z,89.80
2023-03-30T14:52:25.028Z,89.90
2023-03-30T14:55:06.520Z,90.10
2023-03-30T14:57:38.134Z,89.40
2023-03-30T15:00:22.838Z,86.70
2023-03-30T15:02:54.082Z,82.80
2023-03-30T15:05:24.384Z,81.00
2023-03-30T15:07:52.989Z,81.10
2023-03-30T15:10:44.959Z,80.60
2023-03-30T15:13:31.581Z,77.90
2023-03-30T15:16:00.495Z,75.70
2023-03-30T15:18:30.447Z,74.20
2023-03-30T15:20:59.274Z,72.40
2023-03-30T15:23:34.196Z,72.10
2023-03-30T15:26:03.202Z,72.50
2023-03-30T15:28:34.956Z,72.90
2023-03-30T15:31:02.678Z,73.90
2023-03-30T15:33:42.817Z,75.20
2023-03-30T15:36:18.188Z,77.20
2023-03-30T15:38:58.592Z,77.10
2023-03-30T15:41:49.987Z,76.30
2023-03-30T15:44:21.587Z,76.00
2023-03-30T15:46:51.022Z,75.40
2023-03-30T15:49:20.355Z,75.10
2023-03-30T15:52:04.415Z,74.90
2023-03-30T15:54:39.616Z,74.00
2023-03-30T15:57:18.266Z,74.40
2023-03-30T15:59:53.243Z,74.80
2023-03-30T16:02:37.674Z,76.40
2023-03-30T16:05:07.366Z,76.20
2023-03-30T16:07:36.174Z,76.70
2023-03-30T16:10:03.859Z,77.40
2023-03-30T16:12:31.571Z,78.80
2023-03-30T16:14:59.048Z,79.30
2023-03-30T16:17:26.398Z,80.90
2023-03-30T16:19:53.674Z,80.80
2023-03-30T16:22:21.057Z,81.40
2023-03-30T16:24:48.424Z,82.20
2023-03-30T16:27:15.696Z,82.90
2023-03-30T16:29:43.017Z,83.50
2023-03-30T16:32:10.248Z,83.80
2023-03-30T16:34:37.460Z,84.40
2023-03-30T16:37:04.795Z,84.60
2023-03-30T16:39:32.097Z,85.20
2023-03-30T16:42:00.242Z,85.90
2023-03-30T16:44:27.510Z,86.00
2023-03-30T16:46:54.838Z,86.10
2023-03-30T16:49:24.767Z,85.30
2023-03-30T16:51:56.980Z,85.70
2023-03-30T16:54:32.016Z,86.50
2023-03-30T16:57:01.448Z,86.80
2023-03-30T16:59:30.841Z,86.60
2023-03-30T17:01:59.596Z,87.50
2023-03-30T17:04:27.053Z,88.20
2023-03-30T17:06:54.799Z,88.90
2023-03-30T17:09:22.561Z,89.30
2023-03-30T17:11:50.414Z,89.50
2023-03-30T17:14:17.851Z,90.00
2023-03-30T17:16:45.334Z,90.30
2023-03-30T17:19:14.062Z,90.50
2023-03-30T17:21:43.352Z,90.80
2023-03-30T17:24:12.502Z,91.10
2023-03-30T17:26:40.288Z,91.40
2023-03-30T17:29:07.575Z,91.70
2023-03-30T17:31:41.776Z,92.00
2023-03-30T17:34:09.179Z,92.50
2023-03-30T17:36:36.513Z,93.20
2023-03-30T17:39:07.229Z,93.40
2023-03-30T17:41:35.168Z,93.90
2023-03-30T17:44:02.394Z,94.40
2023-03-30T17:46:29.852Z,94.80
2023-03-30T17:48:58.751Z,95.50
2023-03-30T17:51:26.200Z,96.00
2023-03-30T17:53:53.488Z,96.60
2023-03-30T17:56:20.963Z,97.00
2023-03-30T17:58:49.533Z,97.50
2023-03-30T18:01:17.021Z,98.10
2023-03-30T18:03:44.725Z,98.40
2023-03-30T18:06:12.973Z,98.70
2023-03-30T18:08:40.663Z,99.30
2023-03-30T18:11:08.123Z,99.80
2023-03-30T18:13:35.944Z,99.90
2023-03-30T18:16:04.157Z,99.90
2023-03-30T18:18:31.514Z,99.90
2023-03-30T18:21:04.884Z,99.90
2023-03-30T18:23:37.127Z,99.90
2023-03-30T18:26:12.122Z,99.90
2023-03-30T18:28:43.345Z,99.90
2023-03-30T18:31:11.044Z,99.90
2023-03-30T18:33:39.323Z,99.90
2023-03-30T18:36:09.962Z,99.90
2023-03-30T18:38:37.617Z,99.90
2023-03-30T18:41:05.061Z,99.90
2023-03-30T18:43:33.503Z,99.90
2023-03-30T18:46:02.267Z,99.90
2023-03-30T18:48:30.403Z,99.90
2023-03-30T18:50:58.433Z,99.90
2023-03-30T18:53:28.243Z,99.90
2023-03-30T18:56:01.128Z,99.90
2023-03-30T18:58:30.844Z,99.90
2023-03-30T19:00:58.146Z,99.90
2023-03-30T19:03:28.249Z,99.90
2023-03-30T19:05:56.006Z,99.90
2023-03-30T19:08:24.808Z,99.90
2023-03-30T19:10:55.096Z,99.90
2023-03-30T19:13:26.276Z,99.90
2023-03-30T19:15:54.115Z,99.90
2023-03-30T19:18:24.079Z,99.90
2023-03-30T19:20:52.025Z,99.90
2023-03-30T19:23:21.686Z,99.90
2023-03-30T19:25:49.849Z,99.90
2023-03-30T19:28:18.938Z,99.90
2023-03-30T19:30:46.599Z,99.90
2023-03-30T19:33:16.658Z,99.90
2023-03-30T19:35:46.970Z,99.90
2023-03-30T19:38:16.032Z,99.90
2023-03-30T19:40:46.762Z,99.90
2023-03-30T19:43:14.434Z,99.90
2023-03-30T19:45:42.341Z,99.90
2023-03-30T19:48:10.655Z,99.90
2023-03-30T19:50:39.356Z,99.90
2023-03-30T19:53:07.129Z,99.90
2023-03-30T19:55:35.195Z,99.90
2023-03-30T19:58:02.494Z,99.90
2023-03-30T20:00:32.826Z,99.90
2023-03-30T20:03:01.147Z,99.90
2023-03-30T20:05:28.566Z,99.90
2023-03-30T20:07:57.588Z,99.90
2023-03-30T20:10:25.924Z,99.90
2023-03-30T20:12:53.750Z,99.90
2023-03-30T20:15:23.480Z,99.90
2023-03-30T20:17:58.531Z,99.90
2023-03-30T20:20:26.360Z,99.90
2023-03-30T20:22:56.195Z,99.90
2023-03-30T20:25:24.707Z,99.90
2023-03-30T20:27:52.444Z,99.90
2023-03-30T20:30:20.299Z,99.90
2023-03-30T20:33:03.781Z,99.90
2023-03-30T20:35:38.845Z,99.90
2023-03-30T20:38:08.091Z,99.90
2023-03-30T20:40:35.559Z,99.90
2023-03-30T20:43:03.055Z,99.90
2023-03-30T20:45:31.265Z,99.90
2023-03-30T20:48:01.413Z,99.90
2023-03-30T20:50:28.771Z,99.90
2023-03-30T20:52:56.049Z,99.90
2023-03-30T20:55:23.333Z,99.90
2023-03-30T20:57:50.825Z,99.90
2023-03-30T21:00:18.645Z,99.90
2023-03-30T21:02:46.735Z,99.90
2023-03-30T21:05:13.984Z,99.90
2023-03-30T21:07:47.476Z,99.90
2023-03-30T21:10:16.406Z,99.90
2023-03-30T21:12:43.809Z,99.90
2023-03-30T21:15:11.488Z,99.90
2023-03-30T21:17:38.890Z,99.90
2023-03-30T21:20:09.217Z,99.90
2023-03-30T21:22:36.805Z,99.90
2023-03-30T21:25:09.255Z,99.90
2023-03-30T21:27:39.008Z,99.90
2023-03-30T21:30:07.404Z,99.90
2023-03-30T21:32:34.804Z,99.90
2023-03-30T21:35:02.154Z,99.90
2023-03-30T21:37:31.748Z,99.90
2023-03-30T21:39:59.124Z,99.90
2023-03-30T21:42:26.586Z,99.90
2023-03-30T21:44:53.806Z,99.90
2023-03-30T21:47:21.108Z,99.90
2023-03-30T21:49:48.592Z,99.90
2023-03-30T21:52:16.134Z,99.90
2023-03-30T21:54:43.427Z,99.90
2023-03-30T21:57:10.879Z,99.90
2023-03-30T21:59:38.129Z,99.90
2023-03-30T22:02:05.507Z,99.90
2023-03-30T22:04:32.852Z,99.90
2023-03-30T22:07:00.292Z,99.90
2023-03-30T22:09:27.529Z,99.90
2023-03-30T22:11:55.442Z,99.90
2023-03-30T22:14:22.775Z,99.90
2023-03-30T22:16:50.154Z,99.90
2023-03-30T22:19:18.920Z,99.90
2023-03-30T22:21:46.450Z,99.90
2023-03-30T22:24:13.821Z,99.90
2023-03-30T22:26:41.057Z,99.90
2023-03-30T22:29:08.383Z,99.90
2023-03-30T22:31:35.961Z,99.90
2023-03-30T22:34:03.356Z,99.90
2023-03-30T22:36:31.183Z,99.90
2023-03-30T22:39:00.225Z,99.90
2023-03-30T22:41:28.153Z,99.90
2023-03-30T22:43:57.612Z,99.90
2023-03-30T22:46:26.323Z,99.90
2023-03-30T22:48:55.544Z,99.90
2023-03-30T22:51:26.211Z,99.90
2023-03-30T22:53:59.414Z,99.90
2023-03-30T22:56:28.745Z,99.90
2023-03-30T22:58:56.361Z,99.90
2023-03-30T23:01:23.959Z,99.90
2023-03-30T23:03:52.997Z,99.90
2023-03-30T23:06:21.356Z,99.90
2023-03-30T23:08:49.037Z,99.90
2023-03-30T23:11:21.598Z,99.90
2023-03-30T23:13:50.193Z,99.90
2023-03-30T23:16:17.498Z,99.90
2023-03-30T23:18:44.850Z,99.90
2023-03-30T23:21:14.019Z,99.90
2023-03-30T23:23:41.807Z,99.90
2023-03-30T23:26:11.078Z,99.90
2023-03-30T23:28:41.223Z,99.90
2023-03-30T23:31:17.594Z,99.90
2023-03-30T23:33:45.516Z,99.90
2023-03-30T23:36:19.111Z,99.90
2023-03-30T23:38:47.307Z,99.90
2023-03-30T23:41:18.916Z,99.90
2023-03-30T23:43:46.971Z,99.90
2023-03-30T23:46:15.855Z,99.90
2023-03-30T23:48:43.191Z,99.90
2023-03-30T23:51:11.101Z,99.90
2023-03-30T23:53:41.437Z,99.90
2023-03-30T23:56:13.079Z,99.90
2023-03-30T23:58:41.261Z,99.90
